Time;durP1;ratioP1;P1;durP2;ratioP2;P2;SDS_P1;SDS_P2;PMS_P1;PMS_P2;Temp;Humidity;BMP_temperature;BMP_pressure;BME280_temperature;BME280_humidity;BME280_pressure;Samples;Min_cycle;Max_cycle;Signal;HPM_P1;HPM_P2
2022/01/20 00:03:20;;;;;;;;;;;3.30;99.90;;;;;;5130932;28;20069;-82
2022/01/20 00:27:31;;;;;;;0.10;0.10;;;3.70;99.90;;;;;;5117318;28;20274;-82
2022/01/20 00:38:23;;;;;;;0.10;0.10;;;3.10;99.90;;;;;;5073890;28;20052;-83
2022/01/20 00:40:51;;;;;;;0.20;0.20;;;3.00;99.90;;;;;;5089125;28;20722;-83
2022/01/20 00:43:18;;;;;;;0.10;0.10;;;3.50;99.90;;;;;;5122394;28;20033;-82
2022/01/20 00:45:47;;;;;;;0.17;0.17;;;2.80;99.90;;;;;;5088806;28;20470;-83
2022/01/20 00:48:13;;;;;;;0.15;0.15;;;3.50;99.90;;;;;;5088098;28;20824;-83
2022/01/20 00:50:40;;;;;;;0.10;0.10;;;2.90;99.90;;;;;;5105721;28;20148;-83
2022/01/20 00:53:07;;;;;;;0.15;0.15;;;2.90;99.90;;;;;;5071521;28;20399;-83
2022/01/20 00:55:34;;;;;;;0.10;0.10;;;3.50;99.90;;;;;;5088531;28;20052;-83
2022/01/20 00:58:01;;;;;;;0.20;0.20;;;3.50;99.90;;;;;;5088270;28;20037;-82
2022/01/20 01:00:27;;;;;;;0.13;0.13;;;2.70;99.90;;;;;;5088405;28;20037;-82
2022/01/20 01:02:56;;;;;;;0.10;0.10;;;2.80;99.90;;;;;;5088136;28;20032;-82
2022/01/20 01:05:24;;;;;;;0.10;0.10;;;2.60;99.90;;;;;;5071855;28;20127;-82
2022/01/20 01:07:53;;;;;;;0.10;0.10;;;2.70;99.90;;;;;;5122146;28;20033;-83
2022/01/20 01:10:26;;;;;;;0.10;0.10;;;3.50;99.90;;;;;;5104334;28;20073;-83
2022/01/20 01:13:08;;;;;;;0.20;0.20;;;2.70;99.90;;;;;;5122150;28;20124;-81
2022/01/20 01:15:40;;;;;;;0.10;0.10;;;3.40;99.90;;;;;;5086075;28;20140;-82
2022/01/20 01:23:30;;;;;;;0.20;0.20;;;2.80;99.90;;;;;;5088574;28;20136;-83
2022/01/20 01:25:58;;;;;;;0.10;0.10;;;3.30;99.90;;;;;;5121371;28;20123;-83
2022/01/20 01:28:29;;;;;;;0.20;0.20;;;2.80;99.90;;;;;;5121635;28;20041;-83
2022/01/20 01:33:51;;;;;;;0.10;0.10;;;2.90;99.90;;;;;;5092188;28;20041;-82
2022/01/20 01:36:21;;;;;;;0.13;0.13;;;3.10;99.90;;;;;;5081068;28;20097;-82
2022/01/20 01:38:48;;;;;;;0.10;0.10;;;2.80;99.90;;;;;;5145258;28;20042;-82
2022/01/20 01:41:25;;;;;;;0.10;0.10;;;2.70;99.90;;;;;;5128135;28;20058;-82
2022/01/20 01:43:53;;;;;;;0.10;0.10;;;2.70;99.90;;;;;;5145420;28;20040;-83
2022/01/20 01:46:20;;;;;;;0.20;0.20;;;2.80;99.90;;;;;;5144714;28;20128;-83
2022/01/20 01:48:47;;;;;;;0.20;0.20;;;2.70;99.90;;;;;;5111463;28;20040;-83
2022/01/20 01:51:14;;;;;;;0.10;0.10;;;2.70;99.90;;;;;;5144879;28;20575;-83
2022/01/20 01:53:41;;;;;;;0.10;0.10;;;2.70;99.90;;;;;;5128318;28;20096;-83
2022/01/20 01:56:08;;;;;;;0.10;0.10;;;3.10;99.90;;;;;;5110990;28;20484;-83
2022/01/20 01:58:35;;;;;;;0.10;0.10;;;3.00;99.90;;;;;;5127802;28;20040;-83
2022/01/20 02:01:02;;;;;;;0.10;0.10;;;3.70;99.90;;;;;;5111218;28;20043;-83
2022/01/20 02:03:31;;;;;;;0.10;0.10;;;2.80;99.90;;;;;;5127918;28;20047;-83
2022/01/20 02:19:58;;;;;;;0.10;0.10;;;3.00;99.90;;;;;;5119164;28;20435;-83
2022/01/20 02:22:25;;;;;;;0.30;0.30;;;3.00;99.90;;;;;;5097355;28;20035;-83
2022/01/20 02:24:52;;;;;;;0.20;0.20;;;3.00;99.90;;;;;;5097688;28;20488;-83
2022/01/20 02:27:19;;;;;;;0.20;0.20;;;3.10;99.90;;;;;;5113815;28;20069;-83
2022/01/20 02:29:46;;;;;;;0.20;0.20;;;3.20;99.90;;;;;;5130788;28;20075;-83
2022/01/20 02:32:12;;;;;;;0.20;0.20;;;3.20;99.90;;;;;;5113668;28;20040;-83
2022/01/20 02:34:40;;;;;;;0.20;0.20;;;3.20;99.90;;;;;;5130671;28;20087;-83
2022/01/20 02:37:11;;;;;;;0.10;0.10;;;3.20;99.90;;;;;;5113965;28;20090;-83
2022/01/20 02:47:26;;;;;;;0.13;0.13;;;3.10;99.90;;;;;;5130442;28;20091;-83
2022/01/20 02:49:53;;;;;;;0.10;0.10;;;3.10;99.90;;;;;;5114698;28;20079;-84
2022/01/20 02:52:21;;;;;;;0.20;0.20;;;3.20;99.90;;;;;;5113436;28;20093;-83
2022/01/20 02:54:50;;;;;;;0.20;0.20;;;3.10;99.90;;;;;;5130988;28;20043;-82
2022/01/20 02:57:18;;;;;;;0.10;0.10;;;3.10;99.90;;;;;;5130005;28;20427;-82
2022/01/20 02:59:44;;;;;;;0.20;0.20;;;3.00;99.90;;;;;;5130139;28;20063;-82
2022/01/20 03:02:11;;;;;;;0.10;0.10;;;3.40;99.90;;;;;;5113464;28;20039;-83
2022/01/20 03:04:39;;;;;;;0.20;0.20;;;3.00;99.90;;;;;;5130485;28;20511;-83
2022/01/20 03:07:05;;;;;;;0.20;0.20;;;2.90;99.90;;;;;;5147289;28;20122;-83
2022/01/20 03:09:33;;;;;;;0.20;0.20;;;3.00;99.90;;;;;;5147061;28;20138;-82
2022/01/20 03:12:00;;;;;;;0.20;0.20;;;3.00;99.90;;;;;;5113285;28;20043;-82
2022/01/20 03:14:27;;;;;;;0.20;0.20;;;3.40;99.90;;;;;;5113211;28;20039;-83
2022/01/20 03:16:55;;;;;;;0.15;0.15;;;2.90;99.90;;;;;;5129985;28;20491;-83
2022/01/20 03:19:21;;;;;;;0.10;0.10;;;2.90;99.90;;;;;;5129825;28;20104;-83
2022/01/20 03:21:48;;;;;;;0.20;0.20;;;2.80;99.90;;;;;;5096683;28;20036;-82
2022/01/20 03:24:15;;;;;;;0.10;0.10;;;2.70;99.90;;;;;;5112802;28;20035;-82
2022/01/20 03:26:41;;;;;;;0.10;0.10;;;2.70;99.90;;;;;;5113120;28;20036;-83
2022/01/20 03:29:10;;;;;;;0.20;0.20;;;2.50;99.90;;;;;;5096731;28;20043;-83
2022/01/20 03:31:37;;;;;;;0.20;0.20;;;3.00;99.90;;;;;;5129719;28;20044;-83
2022/01/20 03:34:04;;;;;;;0.17;0.17;;;3.00;99.90;;;;;;5096197;28;20090;-83
2022/01/20 03:36:31;;;;;;;0.20;0.20;;;2.70;99.90;;;;;;5129648;28;20050;-83
2022/01/20 03:38:58;;;;;;;0.10;0.10;;;2.60;99.90;;;;;;5096474;28;20078;-83
2022/01/20 03:41:25;;;;;;;0.20;0.20;;;3.30;99.90;;;;;;5148409;28;20071;-83
2022/01/20 03:43:51;;;;;;;0.10;0.10;;;3.20;99.90;;;;;;5133850;28;20118;-83
2022/01/20 03:46:18;;;;;;;0.10;0.10;;;2.70;99.90;;;;;;5116510;28;20060;-82
2022/01/20 03:48:51;;;;;;;0.10;0.10;;;2.80;99.90;;;;;;5133982;28;20085;-83
2022/01/20 03:51:23;;;;;;;0.20;0.20;;;2.80;99.90;;;;;;5134712;28;20058;-83
2022/01/20 03:53:52;;;;;;;0.10;0.10;;;2.80;99.90;;;;;;5133829;28;20044;-82
2022/01/20 03:56:21;;;;;;;0.20;0.20;;;3.30;99.90;;;;;;5133360;28;20043;-82
2022/01/20 03:58:48;;;;;;;0.10;0.10;;;2.90;99.90;;;;;;5133418;28;20051;-82
2022/01/20 04:01:15;;;;;;;0.10;0.10;;;2.50;99.90;;;;;;5150955;28;20038;-83
2022/01/20 04:03:42;;;;;;;0.10;0.10;;;2.90;99.90;;;;;;5099851;28;20035;-83
2022/01/20 04:06:09;;;;;;;0.20;0.20;;;3.00;99.90;;;;;;5116683;28;20126;-83
2022/01/20 04:08:39;;;;;;;0.20;0.20;;;3.00;99.90;;;;;;5133654;28;20126;-83
2022/01/20 04:11:21;;;;;;;0.20;0.20;;;3.10;99.90;;;;;;5133606;28;20047;-83
2022/01/20 04:13:49;;;;;;;0.20;0.20;;;3.00;99.90;;;;;;5167748;27;20044;-83
2022/01/20 04:19:26;;;;;;;0.73;0.73;;;3.00;99.90;;;;;;5150205;28;20096;-82
2022/01/20 04:21:52;;;;;;;0.10;0.10;;;3.00;99.90;;;;;;5150481;27;20051;-83
2022/01/20 04:24:19;;;;;;;0.10;0.10;;;3.60;99.90;;;;;;5116081;28;20468;-83
2022/01/20 04:26:47;;;;;;;0.20;0.20;;;2.90;99.90;;;;;;5116615;28;20067;-83
2022/01/20 04:29:16;;;;;;;0.13;0.13;;;3.20;99.90;;;;;;5167608;27;20079;-83
2022/01/20 04:31:44;;;;;;;0.20;0.20;;;2.80;99.90;;;;;;5116298;28;20500;-83
2022/01/20 04:34:11;;;;;;;0.10;0.10;;;2.80;99.90;;;;;;5116192;28;20052;-83
2022/01/20 04:36:42;;;;;;;0.20;0.20;;;2.80;99.90;;;;;;5149770;28;20528;-82
2022/01/20 04:39:15;;;;;;;0.20;0.20;;;2.80;99.90;;;;;;5167331;27;20044;-83
2022/01/20 04:41:42;;;;;;;0.20;0.20;;;2.80;99.90;;;;;;5166593;27;20120;-83
2022/01/20 04:44:16;;;;;;;0.20;0.20;;;3.70;99.90;;;;;;5115961;28;20035;-83
2022/01/20 04:46:47;;;;;;;0.17;0.17;;;3.00;99.90;;;;;;5132362;28;20488;-82
2022/01/20 04:57:31;;;;;;;0.17;0.17;;;2.80;99.90;;;;;;5135109;28;20039;-83
2022/01/20 04:59:57;;;;;;;0.10;0.10;;;2.70;99.90;;;;;;5099013;28;20036;-83
2022/01/20 05:02:27;;;;;;;0.10;0.10;;;2.80;99.90;;;;;;5098574;28;20081;-81
2022/01/20 05:04:54;;;;;;;0.10;0.10;;;2.50;99.90;;;;;;5132724;28;20036;-82
2022/01/20 05:07:25;;;;;;;0.20;0.20;;;2.50;99.90;;;;;;5132154;28;20092;-82
2022/01/20 05:09:53;;;;;;;0.20;0.20;;;2.70;99.90;;;;;;5132543;28;20051;-82
2022/01/20 05:12:26;;;;;;;0.10;0.10;;;2.30;99.90;;;;;;5132569;28;20040;-83
2022/01/20 05:14:54;;;;;;;0.20;0.20;;;2.20;99.90;;;;;;5100586;28;20035;-82
2022/01/20 05:17:21;;;;;;;0.10;0.10;;;3.00;99.90;;;;;;5095444;28;20040;-83
2022/01/20 05:19:48;;;;;;;0.20;0.20;;;2.20;99.90;;;;;;5128109;28;20043;-82
2022/01/20 05:22:14;;;;;;;0.20;0.20;;;2.20;99.90;;;;;;5111852;28;20063;-83
2022/01/20 05:24:41;;;;;;;0.10;0.10;;;2.10;99.90;;;;;;5145500;28;20040;-83
2022/01/20 05:27:08;;;;;;;0.20;0.20;;;2.00;99.90;;;;;;5111706;28;20397;-82
2022/01/20 05:29:34;;;;;;;0.20;0.20;;;1.90;99.90;;;;;;5111635;28;20441;-82
2022/01/20 05:32:01;;;;;;;0.10;0.10;;;1.80;99.90;;;;;;5111874;28;20404;-83
2022/01/20 05:34:28;;;;;;;0.20;0.20;;;1.80;99.90;;;;;;5110997;28;20492;-83
2022/01/20 05:36:55;;;;;;;0.20;0.20;;;1.80;99.90;;;;;;5111427;28;20097;-83
2022/01/20 05:39:21;;;;;;;0.20;0.20;;;2.30;99.90;;;;;;5128149;28;20044;-83
2022/01/20 05:41:48;;;;;;;0.20;0.20;;;1.80;99.90;;;;;;5111040;28;20074;-83
2022/01/20 05:44:15;;;;;;;0.20;0.20;;;1.80;99.90;;;;;;5111263;28;20071;-82
2022/01/20 05:46:47;;;;;;;0.20;0.20;;;1.80;99.90;;;;;;5110972;28;20046;-82
2022/01/20 05:49:20;;;;;;;0.20;0.20;;;1.70;99.90;;;;;;5112230;28;20036;-82
2022/01/20 05:51:50;;;;;;;0.20;0.20;;;1.90;99.90;;;;;;5112301;28;20138;-82
2022/01/20 05:54:16;;;;;;;0.20;0.20;;;2.10;99.90;;;;;;5128226;28;20044;-83
2022/01/20 05:56:43;;;;;;;0.20;0.20;;;1.80;99.90;;;;;;5110885;28;20036;-82
2022/01/20 05:59:10;;;;;;;0.17;0.17;;;1.40;99.90;;;;;;5110905;28;20047;-82
2022/01/20 06:01:38;;;;;;;0.20;0.20;;;1.40;99.90;;;;;;5127440;28;20122;-82
2022/01/20 06:04:06;;;;;;;0.20;0.20;;;1.80;99.90;;;;;;5127341;28;20128;-82
2022/01/20 06:06:35;;;;;;;0.20;0.20;;;1.50;99.90;;;;;;5111155;28;20051;-82
2022/01/20 06:09:07;;;;;;;0.20;0.20;;;1.30;99.90;;;;;;5111527;28;20127;-82
2022/01/20 06:11:34;;;;;;;0.20;0.20;;;1.30;99.90;;;;;;5127499;28;20039;-82
2022/01/20 06:14:04;;;;;;;0.17;0.17;;;1.30;99.90;;;;;;5112185;28;20144;-82
2022/01/20 06:16:32;;;;;;;0.20;0.20;;;1.30;99.90;;;;;;5127868;28;20050;-82
2022/01/20 06:18:59;;;;;;;0.20;0.20;;;2.00;99.90;;;;;;5130914;28;20032;-82
2022/01/20 06:21:25;;;;;;;0.20;0.20;;;1.40;99.90;;;;;;5110793;28;20085;-83
2022/01/20 06:23:52;;;;;;;0.20;0.20;;;1.40;99.90;;;;;;5110411;28;20046;-82
2022/01/20 06:26:19;;;;;;;0.20;0.20;;;1.40;99.90;;;;;;5127460;28;20047;-82
2022/01/20 06:28:45;;;;;;;0.20;0.20;;;2.00;99.90;;;;;;5110232;28;20059;-82
2022/01/20 06:31:12;;;;;;;0.20;0.20;;;1.40;99.90;;;;;;5127169;28;20044;-82
2022/01/20 06:33:39;;;;;;;0.20;0.20;;;1.50;99.90;;;;;;5126478;28;20443;-82
2022/01/20 06:36:06;;;;;;;0.20;0.20;;;1.60;99.90;;;;;;5110580;28;20054;-82
2022/01/20 06:38:33;;;;;;;0.20;0.20;;;1.50;99.90;;;;;;5110252;28;20472;-82
2022/01/20 06:41:00;;;;;;;0.20;0.20;;;1.70;99.90;;;;;;5109903;28;20039;-82
2022/01/20 06:43:28;;;;;;;0.20;0.20;;;1.60;99.90;;;;;;5109922;28;20040;-81
2022/01/20 06:45:54;;;;;;;0.20;0.20;;;1.60;99.90;;;;;;5126922;28;20043;-82
2022/01/20 06:48:22;;;;;;;0.20;0.20;;;1.60;99.90;;;;;;5126835;28;20039;-82
2022/01/20 06:50:49;;;;;;;0.20;0.20;;;2.60;99.90;;;;;;5109784;28;20519;-82
2022/01/20 06:53:15;;;;;;;0.20;0.20;;;1.70;99.90;;;;;;5110379;28;20036;-82
2022/01/20 06:55:42;;;;;;;0.20;0.20;;;1.80;99.90;;;;;;5109749;28;20134;-82
2022/01/20 06:58:09;;;;;;;0.10;0.10;;;1.90;99.90;;;;;;5127057;28;20132;-82
2022/01/20 07:00:35;;;;;;;0.20;0.20;;;2.20;99.90;;;;;;5126763;28;20515;-82
2022/01/20 07:03:03;;;;;;;0.20;0.20;;;1.90;99.90;;;;;;5109784;28;20046;-82
2022/01/20 07:05:30;;;;;;;0.20;0.20;;;2.00;99.90;;;;;;5127055;28;20036;-82
2022/01/20 07:07:57;;;;;;;0.20;0.20;;;2.40;99.90;;;;;;5109577;28;20582;-82
2022/01/20 07:10:24;;;;;;;0.20;0.20;;;2.10;99.90;;;;;;5109928;28;20174;-82
2022/01/20 07:12:51;;;;;;;0.20;0.20;;;2.70;99.90;;;;;;5110621;28;20449;-82
2022/01/20 07:15:18;;;;;;;0.13;0.13;;;1.70;99.90;;;;;;5129348;28;20036;-82
2022/01/20 07:17:45;;;;;;;0.20;0.20;;;1.40;99.90;;;;;;5129656;28;20127;-82
2022/01/20 07:20:13;;;;;;;0.20;0.20;;;1.20;99.90;;;;;;5129928;28;20075;-83
2022/01/20 07:22:40;;;;;;;0.20;0.20;;;1.30;99.90;;;;;;5109428;28;20032;-82
2022/01/20 07:25:07;;;;;;;0.30;0.30;;;1.30;99.90;;;;;;5125970;28;20043;-82
2022/01/20 07:27:34;;;;;;;0.20;0.20;;;1.30;99.90;;;;;;5109218;28;20077;-82
2022/01/20 07:30:01;;;;;;;0.20;0.20;;;1.40;99.90;;;;;;5109142;28;20052;-82
2022/01/20 07:32:28;;;;;;;0.20;0.20;;;1.30;99.90;;;;;;5109172;28;20048;-82
2022/01/20 07:34:54;;;;;;;0.20;0.20;;;1.30;99.90;;;;;;5109016;28;20136;-82
2022/01/20 07:37:21;;;;;;;0.30;0.30;;;1.30;99.90;;;;;;5143098;28;20097;-82
2022/01/20 07:39:48;;;;;;;0.10;0.10;;;1.30;99.90;;;;;;5109219;28;20051;-82
2022/01/20 07:42:15;;;;;;;0.20;0.20;;;1.30;99.90;;;;;;5109260;28;20180;-82
2022/01/20 07:44:42;;;;;;;0.20;0.20;;;1.40;99.90;;;;;;5109291;28;20032;-82
2022/01/20 07:47:09;;;;;;;0.20;0.20;;;1.40;99.90;;;;;;5125890;28;20069;-82
2022/01/20 07:49:35;;;;;;;0.20;0.20;;;1.50;99.90;;;;;;5109201;28;20059;-82
2022/01/20 07:52:02;;;;;;;0.20;0.20;;;1.50;99.90;;;;;;5109004;28;20044;-82
2022/01/20 07:54:29;;;;;;;0.20;0.20;;;1.40;99.90;;;;;;5109420;28;20436;-82
2022/01/20 07:56:56;;;;;;;0.20;0.20;;;1.80;99.90;;;;;;5108672;28;20044;-82
2022/01/20 07:59:24;;;;;;;0.20;0.20;;;1.50;99.90;;;;;;5109113;28;20086;-81
2022/01/20 08:01:51;;;;;;;0.20;0.20;;;2.10;99.90;;;;;;5109174;28;20044;-82
2022/01/20 08:04:18;;;;;;;0.13;0.13;;;1.40;99.90;;;;;;5128291;28;20568;-82
2022/01/20 08:06:44;;;;;;;0.30;0.30;;;1.40;99.90;;;;;;5129928;28;20480;-82
2022/01/20 08:09:11;;;;;;;0.20;0.20;;;1.50;99.90;;;;;;5112284;28;20401;-83
2022/01/20 08:11:38;;;;;;;0.20;0.20;;;1.40;99.90;;;;;;5129433;28;20040;-83
2022/01/20 08:14:05;;;;;;;0.20;0.20;;;1.50;99.90;;;;;;5112121;28;20042;-83
2022/01/20 08:16:31;;;;;;;0.20;0.20;;;1.50;99.90;;;;;;5146490;28;20069;-83
2022/01/20 08:18:58;;;;;;;0.10;0.10;;;1.80;99.90;;;;;;5112324;28;20036;-82
2022/01/20 08:21:25;;;;;;;0.20;0.20;;;2.70;99.90;;;;;;5112580;28;20503;-83
2022/01/20 08:23:51;;;;;;;0.20;0.20;;;1.70;99.90;;;;;;5095274;28;20044;-81
2022/01/20 08:26:18;;;;;;;0.20;0.20;;;2.20;99.90;;;;;;5106657;28;20038;-83
2022/01/20 08:28:45;;;;;;;0.20;0.20;;;1.80;99.90;;;;;;5098165;28;20051;-82
2022/01/20 08:31:11;;;;;;;0.20;0.20;;;2.50;99.90;;;;;;5098355;28;20032;-83
2022/01/20 08:33:39;;;;;;;0.20;0.20;;;2.00;99.90;;;;;;5132577;28;20055;-82
2022/01/20 08:36:06;;;;;;;0.20;0.20;;;2.10;99.90;;;;;;5115484;28;20085;-81
2022/01/20 08:38:33;;;;;;;0.20;0.20;;;2.90;99.90;;;;;;5095675;28;20040;-82
2022/01/20 08:41:00;;;;;;;0.20;0.20;;;3.00;99.90;;;;;;5115178;28;20044;-81
2022/01/20 08:43:26;;;;;;;0.30;0.30;;;1.90;99.90;;;;;;5108813;28;20038;-82
2022/01/20 08:45:53;;;;;;;0.10;0.10;;;1.90;99.90;;;;;;5115074;28;20089;-82
2022/01/20 08:48:20;;;;;;;0.20;0.20;;;1.90;99.90;;;;;;5132716;28;20495;-82
2022/01/20 08:50:47;;;;;;;0.20;0.20;;;2.90;99.90;;;;;;5115035;28;20035;-82
2022/01/20 08:53:14;;;;;;;0.10;0.10;;;2.00;99.90;;;;;;5115184;28;20028;-81
2022/01/20 08:55:41;;;;;;;0.20;0.20;;;2.20;99.90;;;;;;5112170;28;20040;-82
2022/01/20 08:58:08;;;;;;;0.13;0.13;;;2.10;99.90;;;;;;5114895;28;20399;-82
2022/01/20 09:00:36;;;;;;;0.20;0.20;;;3.10;99.90;;;;;;5148992;28;20044;-82
2022/01/20 09:03:04;;;;;;;0.10;0.10;;;2.30;99.90;;;;;;5132521;28;20047;-82
2022/01/20 09:05:31;;;;;;;0.20;0.20;;;2.40;99.90;;;;;;5131736;28;20123;-82
2022/01/20 09:07:57;;;;;;;0.20;0.20;;;2.60;99.90;;;;;;5131851;28;20492;-83
2022/01/20 09:10:25;;;;;;;0.20;0.20;;;2.90;99.90;;;;;;5132324;28;20043;-82
2022/01/20 09:15:39;;;;;;;0.20;0.20;;;2.60;99.90;;;;;;5149128;28;20113;-82
2022/01/20 09:18:08;;;;;;;0.10;0.10;;;2.60;99.90;;;;;;5165616;27;20088;-83
2022/01/20 09:20:38;;;;;;;0.20;0.20;;;3.30;99.90;;;;;;5131856;28;20069;-81
2022/01/20 09:23:05;;;;;;;0.10;0.10;;;3.60;99.90;;;;;;5114800;28;20039;-83
2022/01/20 09:25:32;;;;;;;0.35;0.35;;;2.90;99.90;;;;;;5131621;28;20845;-82
2022/01/20 09:28:00;;;;;;;0.20;0.20;;;2.80;99.90;;;;;;5131205;28;20041;-82
2022/01/20 09:30:28;;;;;;;0.20;0.20;;;2.80;99.90;;;;;;5131570;28;20043;-82
2022/01/20 09:33:08;;;;;;;0.17;0.17;;;2.80;99.90;;;;;;5153948;27;20044;-82
2022/01/20 09:35:37;;;;;;;0.10;0.10;;;3.10;99.90;;;;;;5144627;28;20060;-82
2022/01/20 09:38:04;;;;;;;0.20;0.20;;;3.60;99.90;;;;;;5143889;28;20044;-83
2022/01/20 09:40:33;;;;;;;0.20;0.20;;;3.00;99.90;;;;;;5144359;28;20079;-82
2022/01/20 09:43:01;;;;;;;0.10;0.10;;;3.90;99.90;;;;;;5143949;28;20396;-82
2022/01/20 09:45:28;;;;;;;0.10;0.10;;;3.40;99.90;;;;;;5155772;27;20040;-81
2022/01/20 09:47:55;;;;;;;0.20;0.20;;;3.60;99.90;;;;;;5165484;27;20038;-82
2022/01/20 09:50:24;;;;;;;0.20;0.20;;;3.90;99.90;;;;;;5165001;27;20043;-82
2022/01/20 09:52:55;;;;;;;0.10;0.10;;;3.40;99.90;;;;;;5131419;28;20051;-82
2022/01/20 09:55:22;;;;;;;0.10;0.10;;;2.50;99.90;;;;;;5132024;28;20075;-82
2022/01/20 09:57:49;;;;;;;0.10;0.10;;;2.30;99.90;;;;;;5130764;28;20082;-82
2022/01/20 10:00:17;;;;;;;0.20;0.20;;;3.10;99.90;;;;;;5130486;28;20105;-81
2022/01/20 10:02:59;;;;;;;0.10;0.10;;;2.20;99.90;;;;;;5148169;27;20031;-81
2022/01/20 10:05:45;;;;;;;0.20;0.20;;;2.20;99.90;;;;;;5130956;28;20088;-82
2022/01/20 10:08:16;;;;;;;0.20;0.20;;;2.20;99.90;;;;;;5131035;28;20069;-82
2022/01/20 10:10:53;;;;;;;0.20;0.20;;;2.20;99.90;;;;;;5147506;28;20032;-82
2022/01/20 10:13:23;;;;;;;0.15;0.15;;;2.30;99.90;;;;;;5130263;28;20507;-81
2022/01/20 10:16:01;;;;;;;0.10;0.10;;;3.10;99.90;;;;;;5131165;28;20039;-81
2022/01/20 10:18:29;;;;;;;0.13;0.13;;;3.30;99.90;;;;;;5147791;28;20040;-82
2022/01/20 10:20:58;;;;;;;0.10;0.10;;;2.60;99.90;;;;;;5113217;28;20035;-80
2022/01/20 10:23:35;;;;;;;0.10;0.10;;;2.70;99.90;;;;;;5130936;28;20092;-82
2022/01/20 10:26:03;;;;;;;0.20;0.20;;;2.90;99.90;;;;;;5147367;28;20110;-82
2022/01/20 10:28:30;;;;;;;0.20;0.20;;;3.20;99.90;;;;;;5147850;28;20058;-82
2022/01/20 10:30:57;;;;;;;0.10;0.10;;;3.00;99.90;;;;;;5109659;28;20031;-82
2022/01/20 10:33:24;;;;;;;0.20;0.20;;;3.10;99.90;;;;;;5164445;27;20039;-82
2022/01/20 10:35:52;;;;;;;0.10;0.10;;;3.50;99.90;;;;;;5109411;28;20044;-82
2022/01/20 10:38:20;;;;;;;0.10;0.10;;;3.30;99.90;;;;;;5110108;28;20079;-82
2022/01/20 10:40:54;;;;;;;0.10;0.10;;;3.40;99.90;;;;;;5113359;28;20035;-83
2022/01/20 10:43:21;;;;;;;0.10;0.10;;;3.40;99.90;;;;;;5129696;28;20031;-83
2022/01/20 10:45:49;;;;;;;0.10;0.10;;;4.60;99.90;;;;;;5130103;28;20400;-83
2022/01/20 10:48:19;;;;;;;0.10;0.10;;;4.30;99.90;;;;;;5130073;28;20043;-83
2022/01/20 10:50:46;;;;;;;0.10;0.10;;;3.60;99.90;;;;;;5130054;28;20043;-82
2022/01/20 10:53:18;;;;;;;0.20;0.20;;;3.50;99.90;;;;;;5129825;28;20058;-82
2022/01/20 10:55:45;;;;;;;0.10;0.10;;;3.40;99.90;;;;;;5129628;28;20042;-82
2022/01/20 10:58:22;;;;;;;0.10;0.10;;;3.40;99.90;;;;;;5112960;28;20047;-82
2022/01/20 11:00:53;;;;;;;0.20;0.20;;;4.10;99.90;;;;;;5129657;28;20130;-83
2022/01/20 11:03:23;;;;;;;0.57;0.43;;;3.30;99.90;;;;;;5129799;28;20057;-83
2022/01/20 11:05:51;;;;;;;0.10;0.10;;;3.30;99.90;;;;;;5129784;28;20431;-82
2022/01/20 11:08:18;;;;;;;0.10;0.10;;;3.40;99.90;;;;;;5130076;28;20054;-82
2022/01/20 11:10:45;;;;;;;0.10;0.10;;;3.50;99.90;;;;;;5112739;28;20043;-82
2022/01/20 11:13:15;;;;;;;0.20;0.20;;;3.70;99.90;;;;;;5131450;28;20677;-82
2022/01/20 11:15:43;;;;;;;0.20;0.20;;;3.50;99.90;;;;;;5130799;28;20046;-83
2022/01/20 11:18:10;;;;;;;0.10;0.10;;;3.50;99.90;;;;;;5146081;28;20051;-82
2022/01/20 11:20:50;;;;;;;0.10;0.10;;;3.50;99.90;;;;;;5112700;28;20044;-82
2022/01/20 11:23:17;;;;;;;0.10;0.10;;;3.50;99.90;;;;;;5146007;28;20035;-82
2022/01/20 11:25:45;;;;;;;0.10;0.10;;;3.50;99.90;;;;;;5112843;28;20032;-82
2022/01/20 11:28:20;;;;;;;0.15;0.15;;;3.50;99.90;;;;;;5129291;28;20035;-82
2022/01/20 11:31:05;;;;;;;0.10;0.10;;;3.50;99.90;;;;;;5129013;28;20436;-81
2022/01/20 11:33:36;;;;;;;0.10;0.10;;;3.50;99.90;;;;;;5128988;28;20055;-82
2022/01/20 11:36:05;;;;;;;0.10;0.10;;;3.60;99.90;;;;;;5129031;28;20130;-82
2022/01/20 11:38:45;;;;;;;0.10;0.10;;;3.60;99.90;;;;;;5129134;28;20458;-83
2022/01/20 11:41:14;;;;;;;0.10;0.10;;;3.70;99.90;;;;;;5128298;28;20036;-82
2022/01/20 11:43:52;;;;;;;0.10;0.10;;;3.80;99.90;;;;;;5112689;28;20034;-83
2022/01/20 11:46:24;;;;;;;0.10;0.10;;;3.80;99.90;;;;;;5146284;28;20127;-82
2022/01/20 11:48:59;;;;;;;0.10;0.10;;;3.60;99.90;;;;;;5145596;28;20040;-82
2022/01/20 11:51:49;;;;;;;0.10;0.10;;;3.50;99.90;;;;;;5129489;28;20036;-82
2022/01/20 11:54:27;;;;;;;0.20;0.20;;;3.40;99.90;;;;;;5128973;28;20067;-82
2022/01/20 11:57:15;;;;;;;0.20;0.20;;;3.20;99.90;;;;;;5146169;28;20135;-82
2022/01/20 11:59:51;;;;;;;0.10;0.10;;;3.20;99.90;;;;;;5163228;28;20054;-82
2022/01/20 12:02:35;;;;;;;0.20;0.20;;;3.20;99.90;;;;;;5164352;27;20438;-82
2022/01/20 12:05:27;;;;;;;0.10;0.10;;;3.20;99.90;;;;;;5116477;28;20082;-82
2022/01/20 12:08:20;;;;;;;0.20;0.20;;;3.30;99.90;;;;;;5133650;28;20039;-83
2022/01/20 12:11:07;;;;;;;0.10;0.10;;;3.30;99.90;;;;;;5132873;28;20071;-82
2022/01/20 12:13:53;;;;;;;0.10;0.10;;;3.40;99.90;;;;;;5132917;28;20046;-83
2022/01/20 12:16:21;;;;;;;0.10;0.10;;;3.50;99.90;;;;;;5132737;28;20169;-82
2022/01/20 12:18:53;;;;;;;0.10;0.10;;;4.10;99.90;;;;;;5132295;28;20079;-81
2022/01/20 12:21:20;;;;;;;0.10;0.10;;;3.70;99.90;;;;;;5128979;28;20047;-82
2022/01/20 12:23:49;;;;;;;0.10;0.10;;;4.20;99.90;;;;;;5151796;27;20032;-82
2022/01/20 12:26:15;;;;;;;0.10;0.10;;;3.60;99.90;;;;;;5131990;28;20042;-82
2022/01/20 12:28:42;;;;;;;0.15;0.15;;;3.80;99.90;;;;;;5112827;28;20040;-82
2022/01/20 12:31:09;;;;;;;0.10;0.10;;;3.70;99.90;;;;;;5098961;28;20039;-82
2022/01/20 12:33:44;;;;;;;0.10;0.10;;;3.50;99.90;;;;;;5132423;28;20503;-82
2022/01/20 12:36:16;;;;;;;0.10;0.10;;;4.20;99.90;;;;;;5132607;28;20044;-82
2022/01/20 12:38:49;;;;;;;0.10;0.10;;;3.50;99.90;;;;;;5132645;28;20043;-82
2022/01/20 12:41:25;;;;;;;0.15;0.15;;;3.50;99.90;;;;;;5132134;28;20050;-82
2022/01/20 12:43:55;;;;;;;;;;;3.80;99.90;;;;;;5133151;28;20039;-82
2022/01/20 12:46:28;;;;;;;0.20;0.20;;;3.60;99.90;;;;;;5166582;27;20410;-82
2022/01/20 12:49:01;;;;;;;0.20;0.20;;;3.60;99.90;;;;;;5132586;28;20043;-82
2022/01/20 12:51:35;;;;;;;0.15;0.15;;;3.70;99.90;;;;;;5132150;28;20040;-82
2022/01/20 12:54:06;;;;;;;0.15;0.15;;;3.70;99.90;;;;;;5132450;28;20381;-83
2022/01/20 12:56:36;;;;;;;0.10;0.10;;;4.00;99.90;;;;;;5132077;28;20043;-83
2022/01/20 12:59:04;;;;;;;0.10;0.10;;;3.80;99.90;;;;;;5132267;28;20039;-82
2022/01/20 13:01:45;;;;;;;0.10;0.10;;;3.90;99.90;;;;;;5131964;28;20074;-82
2022/01/20 13:04:14;;;;;;;0.10;0.10;;;3.90;99.90;;;;;;5131948;28;20071;-82
2022/01/20 13:06:55;;;;;;;0.10;0.10;;;3.90;99.90;;;;;;5158016;27;20035;-82
2022/01/20 13:09:25;;;;;;;0.10;0.10;;;3.90;99.90;;;;;;5154225;27;20504;-83
2022/01/20 13:11:59;;;;;;;0.10;0.10;;;3.80;99.90;;;;;;5111684;28;20048;-82
2022/01/20 13:14:34;;;;;;;0.10;0.10;;;3.70;99.90;;;;;;5111158;28;20044;-82
2022/01/20 13:17:01;;;;;;;0.10;0.10;;;4.40;99.90;;;;;;5162366;27;20083;-82
2022/01/20 13:19:35;;;;;;;0.10;0.10;;;3.80;99.90;;;;;;5114139;28;20058;-82
2022/01/20 13:22:05;;;;;;;0.10;0.10;;;3.80;99.90;;;;;;5131818;28;20411;-81
2022/01/20 13:24:34;;;;;;;0.10;0.10;;;3.80;99.90;;;;;;5165650;27;20031;-81
2022/01/20 13:27:06;;;;;;;0.10;0.10;;;3.90;99.90;;;;;;5131766;28;20458;-82
2022/01/20 13:29:45;;;;;;;0.10;0.10;;;3.80;99.90;;;;;;5148156;28;20504;-83
2022/01/20 13:32:13;;;;;;;0.20;0.20;;;3.80;99.90;;;;;;5147835;28;20123;-82
2022/01/20 13:35:00;;;;;;;0.10;0.10;;;4.00;99.90;;;;;;5114435;28;20051;-81
2022/01/20 13:37:30;;;;;;;0.10;0.10;;;3.70;99.90;;;;;;5131522;28;20081;-82
2022/01/20 13:39:59;;;;;;;0.15;0.15;;;3.60;99.90;;;;;;5114802;28;20093;-81
2022/01/20 13:42:38;;;;;;;0.10;0.10;;;3.60;99.90;;;;;;5131144;28;20039;-81
2022/01/20 13:45:14;;;;;;;0.10;0.10;;;3.90;99.90;;;;;;5131257;28;20557;-82
2022/01/20 13:47:52;;;;;;;;;;;3.60;99.90;;;;;;5165564;27;20100;-82
2022/01/20 13:50:20;;;;;;;0.10;0.10;;;3.60;99.90;;;;;;5165527;27;19916;-81
2022/01/20 13:52:47;;;;;;;0.10;0.10;;;3.70;99.90;;;;;;5148386;28;20043;-82
2022/01/20 13:55:24;;;;;;;0.20;0.20;;;4.00;99.90;;;;;;5130933;28;20134;-81
2022/01/20 13:57:52;;;;;;;0.10;0.10;;;4.00;99.90;;;;;;5165384;27;20046;-82
2022/01/20 14:00:21;;;;;;;0.17;0.17;;;4.10;99.90;;;;;;5164629;27;20071;-82
2022/01/20 14:02:49;;;;;;;2.30;1.48;;;4.00;99.90;;;;;;5164855;27;20869;-82
2022/01/20 14:05:17;;;;;;;0.10;0.10;;;4.50;99.90;;;;;;5097107;28;20504;-81
2022/01/20 14:07:44;;;;;;;0.10;0.10;;;3.70;99.90;;;;;;5130633;28;20741;-82
2022/01/20 14:10:11;;;;;;;0.10;0.10;;;3.60;99.90;;;;;;5112216;28;20040;-80
2022/01/20 14:12:38;;;;;;;0.10;0.10;;;3.50;99.90;;;;;;5107858;28;20451;-81
2022/01/20 14:15:05;;;;;;;0.10;0.10;;;3.60;99.90;;;;;;5093775;28;20412;-82
2022/01/20 14:17:37;;;;;;;0.10;0.10;;;3.60;99.90;;;;;;5113701;28;20096;-81
2022/01/20 14:20:10;;;;;;;0.10;0.10;;;3.60;99.90;;;;;;5130613;28;20040;-81
2022/01/20 14:22:37;;;;;;;0.10;0.10;;;3.60;99.90;;;;;;5129946;28;20568;-82
2022/01/20 14:25:06;;;;;;;0.10;0.10;;;3.60;99.90;;;;;;5146895;28;20046;-81